sensor_id;sensor_type;location;lat;lon;timestamp;P1;durP1;ratioP1;P2;durP2;ratioP2
17570;SDS011;8903;52.220;20.978;2023-04-15T00:02:15;10.73;;;9.67;;
17570;SDS011;8903;52.220;20.978;2023-04-15T00:04:43;10.13;;;8.90;;
17570;SDS011;8903;52.220;20.978;2023-04-15T00:07:10;10.27;;;8.90;;
17570;SDS011;8903;52.220;20.978;2023-04-15T00:09:37;11.90;;;9.47;;
17570;SDS011;8903;52.220;20.978;2023-04-15T00:12:06;10.33;;;9.00;;
17570;SDS011;8903;52.220;20.978;2023-04-15T00:14:34;10.60;;;9.27;;
17570;SDS011;8903;52.220;20.978;2023-04-15T00:17:01;11.70;;;9.57;;
17570;SDS011;8903;52.220;20.978;2023-04-15T00:19:29;9.73;;;8.73;;
17570;SDS011;8903;52.220;20.978;2023-04-15T00:21:58;11.20;;;9.10;;
17570;SDS011;8903;52.220;20.978;2023-04-15T00:24:26;12.23;;;10.10;;
17570;SDS011;8903;52.220;20.978;2023-04-15T00:26:53;12.07;;;10.00;;
17570;SDS011;8903;52.220;20.978;2023-04-15T00:29:20;13.00;;;9.50;;
17570;SDS011;8903;52.220;20.978;2023-04-15T00:31:47;14.20;;;10.27;;
17570;SDS011;8903;52.220;20.978;2023-04-15T00:34:14;11.57;;;9.37;;
17570;SDS011;8903;52.220;20.978;2023-04-15T00:36:43;12.80;;;10.87;;
17570;SDS011;8903;52.220;20.978;2023-04-15T00:39:10;15.07;;;10.20;;
17570;SDS011;8903;52.220;20.978;2023-04-15T00:41:37;14.10;;;9.70;;
17570;SDS011;8903;52.220;20.978;2023-04-15T00:44:05;9.93;;;8.90;;
17570;SDS011;8903;52.220;20.978;2023-04-15T00:46:32;10.90;;;9.40;;
17570;SDS011;8903;52.220;20.978;2023-04-15T00:49:02;12.60;;;10.50;;
17570;SDS011;8903;52.220;20.978;2023-04-15T00:51:31;12.80;;;9.70;;
17570;SDS011;8903;52.220;20.978;2023-04-15T00:54:01;12.70;;;10.40;;
17570;SDS011;8903;52.220;20.978;2023-04-15T00:56:29;12.17;;;10.80;;
17570;SDS011;8903;52.220;20.978;2023-04-15T00:58:57;12.30;;;10.60;;
17570;SDS011;8903;52.220;20.978;2023-04-15T01:01:25;12.37;;;10.27;;
17570;SDS011;8903;52.220;20.978;2023-04-15T01:03:53;11.67;;;10.40;;
17570;SDS011;8903;52.220;20.978;2023-04-15T01:06:21;10.90;;;9.73;;
17570;SDS011;8903;52.220;20.978;2023-04-15T01:08:49;12.20;;;10.23;;
17570;SDS011;8903;52.220;20.978;2023-04-15T01:11:18;11.87;;;10.03;;
17570;SDS011;8903;52.220;20.978;2023-04-15T01:13:45;12.23;;;10.70;;
17570;SDS011;8903;52.220;20.978;2023-04-15T01:16:12;11.87;;;10.63;;
17570;SDS011;8903;52.220;20.978;2023-04-15T01:18:41;12.97;;;10.60;;
17570;SDS011;8903;52.220;20.978;2023-04-15T01:21:08;10.80;;;9.70;;
17570;SDS011;8903;52.220;20.978;2023-04-15T01:23:36;12.67;;;11.33;;
17570;SDS011;8903;52.220;20.978;2023-04-15T01:26:05;12.63;;;11.37;;
17570;SDS011;8903;52.220;20.978;2023-04-15T01:28:33;13.03;;;11.07;;
17570;SDS011;8903;52.220;20.978;2023-04-15T01:31:07;18.27;;;11.80;;
17570;SDS011;8903;52.220;20.978;2023-04-15T01:33:36;13.50;;;11.93;;
17570;SDS011;8903;52.220;20.978;2023-04-15T01:36:04;15.80;;;14.10;;
17570;SDS011;8903;52.220;20.978;2023-04-15T01:38:34;14.47;;;11.40;;
17570;SDS011;8903;52.220;20.978;2023-04-15T01:41:01;13.73;;;12.30;;
17570;SDS011;8903;52.220;20.978;2023-04-15T01:43:30;14.63;;;13.03;;
17570;SDS011;8903;52.220;20.978;2023-04-15T01:45:57;15.30;;;13.30;;
17570;SDS011;8903;52.220;20.978;2023-04-15T01:48:24;14.20;;;12.70;;
17570;SDS011;8903;52.220;20.978;2023-04-15T01:50:53;15.00;;;13.40;;
17570;SDS011;8903;52.220;20.978;2023-04-15T01:53:21;14.90;;;13.40;;
17570;SDS011;8903;52.220;20.978;2023-04-15T01:55:48;15.83;;;13.50;;
17570;SDS011;8903;52.220;20.978;2023-04-15T01:58:16;17.37;;;15.00;;
17570;SDS011;8903;52.220;20.978;2023-04-15T02:00:45;15.60;;;12.73;;
17570;SDS011;8903;52.220;20.978;2023-04-15T02:03:12;17.43;;;15.30;;
17570;SDS011;8903;52.220;20.978;2023-04-15T02:05:39;18.03;;;13.77;;
17570;SDS011;8903;52.220;20.978;2023-04-15T02:08:05;16.30;;;14.33;;
17570;SDS011;8903;52.220;20.978;2023-04-15T02:10:35;19.13;;;16.03;;
17570;SDS011;8903;52.220;20.978;2023-04-15T02:13:04;16.30;;;14.13;;
17570;SDS011;8903;52.220;20.978;2023-04-15T02:15:31;16.37;;;14.10;;
17570;SDS011;8903;52.220;20.978;2023-04-15T02:17:59;20.93;;;16.50;;
17570;SDS011;8903;52.220;20.978;2023-04-15T02:20:26;17.33;;;15.57;;
17570;SDS011;8903;52.220;20.978;2023-04-15T02:22:56;18.23;;;16.23;;
17570;SDS011;8903;52.220;20.978;2023-04-15T02:25:23;21.80;;;15.40;;
17570;SDS011;8903;52.220;20.978;2023-04-15T02:27:50;19.17;;;16.27;;
17570;SDS011;8903;52.220;20.978;2023-04-15T02:30:17;23.07;;;16.40;;
17570;SDS011;8903;52.220;20.978;2023-04-15T02:32:45;21.70;;;17.00;;
17570;SDS011;8903;52.220;20.978;2023-04-15T02:35:14;18.90;;;15.70;;
17570;SDS011;8903;52.220;20.978;2023-04-15T02:37:43;17.83;;;15.93;;
17570;SDS011;8903;52.220;20.978;2023-04-15T02:40:11;18.37;;;15.70;;
17570;SDS011;8903;52.220;20.978;2023-04-15T02:42:38;18.50;;;15.43;;
17570;SDS011;8903;52.220;20.978;2023-04-15T02:45:09;19.83;;;15.70;;
17570;SDS011;8903;52.220;20.978;2023-04-15T02:47:37;18.70;;;15.80;;
17570;SDS011;8903;52.220;20.978;2023-04-15T02:50:06;21.60;;;15.80;;
17570;SDS011;8903;52.220;20.978;2023-04-15T02:52:38;17.53;;;15.53;;
17570;SDS011;8903;52.220;20.978;2023-04-15T02:55:05;18.17;;;15.20;;
17570;SDS011;8903;52.220;20.978;2023-04-15T02:57:35;15.17;;;13.57;;
17570;SDS011;8903;52.220;20.978;2023-04-15T03:00:06;17.87;;;15.30;;
17570;SDS011;8903;52.220;20.978;2023-04-15T03:05:46;16.30;;;14.60;;
17570;SDS011;8903;52.220;20.978;2023-04-15T03:08:14;16.90;;;15.00;;
17570;SDS011;8903;52.220;20.978;2023-04-15T03:10:41;18.90;;;16.30;;
17570;SDS011;8903;52.220;20.978;2023-04-15T03:13:08;17.80;;;15.30;;
17570;SDS011;8903;52.220;20.978;2023-04-15T03:15:37;20.03;;;16.37;;
17570;SDS011;8903;52.220;20.978;2023-04-15T03:18:04;15.43;;;13.63;;
17570;SDS011;8903;52.220;20.978;2023-04-15T03:20:32;16.17;;;13.87;;
17570;SDS011;8903;52.220;20.978;2023-04-15T03:23:01;17.90;;;15.30;;
17570;SDS011;8903;52.220;20.978;2023-04-15T03:25:29;16.07;;;14.37;;
17570;SDS011;8903;52.220;20.978;2023-04-15T03:27:58;18.33;;;15.90;;
17570;SDS011;8903;52.220;20.978;2023-04-15T03:30:26;18.17;;;14.80;;
17570;SDS011;8903;52.220;20.978;2023-04-15T03:32:54;16.17;;;14.47;;
17570;SDS011;8903;52.220;20.978;2023-04-15T03:35:21;16.60;;;14.47;;
17570;SDS011;8903;52.220;20.978;2023-04-15T03:37:48;18.03;;;15.90;;
17570;SDS011;8903;52.220;20.978;2023-04-15T03:40:15;15.07;;;13.50;;
17570;SDS011;8903;52.220;20.978;2023-04-15T03:42:43;18.90;;;14.63;;
17570;SDS011;8903;52.220;20.978;2023-04-15T03:45:10;20.60;;;15.00;;
17570;SDS011;8903;52.220;20.978;2023-04-15T03:47:37;20.03;;;12.60;;
17570;SDS011;8903;52.220;20.978;2023-04-15T03:50:05;20.70;;;16.10;;
17570;SDS011;8903;52.220;20.978;2023-04-15T03:52:32;18.67;;;14.50;;
17570;SDS011;8903;52.220;20.978;2023-04-15T03:54:59;16.23;;;14.50;;
17570;SDS011;8903;52.220;20.978;2023-04-15T03:57:26;15.33;;;13.70;;
17570;SDS011;8903;52.220;20.978;2023-04-15T03:59:55;15.50;;;13.90;;
17570;SDS011;8903;52.220;20.978;2023-04-15T04:02:23;21.80;;;15.90;;
17570;SDS011;8903;52.220;20.978;2023-04-15T04:04:50;15.40;;;13.60;;
17570;SDS011;8903;52.220;20.978;2023-04-15T04:07:17;16.50;;;14.60;;
17570;SDS011;8903;52.220;20.978;2023-04-15T04:09:44;16.90;;;14.70;;
17570;SDS011;8903;52.220;20.978;2023-04-15T04:12:11;14.90;;;12.87;;
17570;SDS011;8903;52.220;20.978;2023-04-15T04:14:38;15.60;;;14.10;;
17570;SDS011;8903;52.220;20.978;2023-04-15T04:17:06;17.90;;;13.77;;
17570;SDS011;8903;52.220;20.978;2023-04-15T04:19:33;15.37;;;13.50;;
17570;SDS011;8903;52.220;20.978;2023-04-15T04:22:00;16.93;;;14.63;;
17570;SDS011;8903;52.220;20.978;2023-04-15T04:24:27;16.13;;;13.87;;
17570;SDS011;8903;52.220;20.978;2023-04-15T04:26:55;18.23;;;15.53;;
17570;SDS011;8903;52.220;20.978;2023-04-15T04:29:22;18.13;;;14.60;;
17570;SDS011;8903;52.220;20.978;2023-04-15T04:31:49;16.53;;;14.73;;
17570;SDS011;8903;52.220;20.978;2023-04-15T04:34:17;17.33;;;14.20;;
17570;SDS011;8903;52.220;20.978;2023-04-15T04:36:44;18.97;;;15.37;;
17570;SDS011;8903;52.220;20.978;2023-04-15T04:39:11;15.90;;;13.87;;
17570;SDS011;8903;52.220;20.978;2023-04-15T04:41:38;17.50;;;14.63;;
17570;SDS011;8903;52.220;20.978;2023-04-15T04:44:05;21.07;;;14.30;;
17570;SDS011;8903;52.220;20.978;2023-04-15T04:46:32;19.70;;;14.90;;
17570;SDS011;8903;52.220;20.978;2023-04-15T04:48:59;18.47;;;13.50;;
17570;SDS011;8903;52.220;20.978;2023-04-15T04:51:28;17.80;;;14.43;;
17570;SDS011;8903;52.220;20.978;2023-04-15T04:53:57;19.87;;;14.70;;
17570;SDS011;8903;52.220;20.978;2023-04-15T04:56:24;17.33;;;14.83;;
17570;SDS011;8903;52.220;20.978;2023-04-15T04:58:51;17.67;;;14.93;;
17570;SDS011;8903;52.220;20.978;2023-04-15T05:01:18;17.03;;;14.00;;
17570;SDS011;8903;52.220;20.978;2023-04-15T05:03:45;17.40;;;14.17;;
17570;SDS011;8903;52.220;20.978;2023-04-15T05:06:12;17.60;;;13.37;;
17570;SDS011;8903;52.220;20.978;2023-04-15T05:08:40;16.40;;;14.10;;
17570;SDS011;8903;52.220;20.978;2023-04-15T05:11:07;22.53;;;14.00;;
17570;SDS011;8903;52.220;20.978;2023-04-15T05:13:34;18.93;;;15.50;;
17570;SDS011;8903;52.220;20.978;2023-04-15T05:16:03;15.80;;;14.10;;
17570;SDS011;8903;52.220;20.978;2023-04-15T05:18:30;17.50;;;14.23;;
17570;SDS011;8903;52.220;20.978;2023-04-15T05:20:57;18.07;;;14.50;;
17570;SDS011;8903;52.220;20.978;2023-04-15T05:23:25;15.30;;;13.13;;
17570;SDS011;8903;52.220;20.978;2023-04-15T05:25:53;17.57;;;14.57;;
17570;SDS011;8903;52.220;20.978;2023-04-15T05:28:20;19.00;;;13.00;;
17570;SDS011;8903;52.220;20.978;2023-04-15T05:30:47;13.93;;;12.53;;
17570;SDS011;8903;52.220;20.978;2023-04-15T05:33:14;16.63;;;13.80;;
17570;SDS011;8903;52.220;20.978;2023-04-15T05:35:41;14.80;;;12.10;;
17570;SDS011;8903;52.220;20.978;2023-04-15T05:38:08;16.07;;;13.90;;
17570;SDS011;8903;52.220;20.978;2023-04-15T05:40:35;17.57;;;14.10;;
17570;SDS011;8903;52.220;20.978;2023-04-15T05:43:03;15.37;;;13.73;;
17570;SDS011;8903;52.220;20.978;2023-04-15T05:45:30;15.97;;;13.60;;
17570;SDS011;8903;52.220;20.978;2023-04-15T05:47:57;14.87;;;13.27;;
17570;SDS011;8903;52.220;20.978;2023-04-15T05:50:24;16.20;;;14.33;;
17570;SDS011;8903;52.220;20.978;2023-04-15T05:52:51;17.17;;;14.70;;
17570;SDS011;8903;52.220;20.978;2023-04-15T05:55:18;14.83;;;13.13;;
17570;SDS011;8903;52.220;20.978;2023-04-15T05:57:46;15.23;;;12.00;;
17570;SDS011;8903;52.220;20.978;2023-04-15T06:00:14;19.33;;;14.17;;
17570;SDS011;8903;52.220;20.978;2023-04-15T06:02:41;16.67;;;14.87;;
17570;SDS011;8903;52.220;20.978;2023-04-15T06:05:08;14.07;;;12.60;;
17570;SDS011;8903;52.220;20.978;2023-04-15T06:07:36;14.00;;;12.50;;
17570;SDS011;8903;52.220;20.978;2023-04-15T06:10:03;15.57;;;12.43;;
17570;SDS011;8903;52.220;20.978;2023-04-15T06:12:31;14.17;;;12.23;;
17570;SDS011;8903;52.220;20.978;2023-04-15T06:14:58;12.90;;;11.50;;
17570;SDS011;8903;52.220;20.978;2023-04-15T06:17:26;17.50;;;13.33;;
17570;SDS011;8903;52.220;20.978;2023-04-15T06:19:53;17.77;;;13.00;;
17570;SDS011;8903;52.220;20.978;2023-04-15T06:22:20;14.97;;;12.10;;
17570;SDS011;8903;52.220;20.978;2023-04-15T06:24:47;13.87;;;12.40;;
17570;SDS011;8903;52.220;20.978;2023-04-15T06:27:15;14.07;;;12.57;;
17570;SDS011;8903;52.220;20.978;2023-04-15T06:29:42;14.83;;;12.90;;
17570;SDS011;8903;52.220;20.978;2023-04-15T06:32:09;13.40;;;12.10;;
17570;SDS011;8903;52.220;20.978;2023-04-15T06:34:38;13.47;;;11.97;;
17570;SDS011;8903;52.220;20.978;2023-04-15T06:37:05;13.70;;;12.40;;
17570;SDS011;8903;52.220;20.978;2023-04-15T06:39:34;14.57;;;12.57;;
17570;SDS011;8903;52.220;20.978;2023-04-15T06:42:01;13.57;;;12.20;;
17570;SDS011;8903;52.220;20.978;2023-04-15T06:44:28;12.80;;;11.50;;
17570;SDS011;8903;52.220;20.978;2023-04-15T06:46:55;13.87;;;12.10;;
17570;SDS011;8903;52.220;20.978;2023-04-15T06:49:22;12.23;;;10.87;;
17570;SDS011;8903;52.220;20.978;2023-04-15T06:51:51;14.20;;;11.43;;
17570;SDS011;8903;52.220;20.978;2023-04-15T06:54:18;14.03;;;12.07;;
17570;SDS011;8903;52.220;20.978;2023-04-15T06:56:45;12.77;;;10.90;;
17570;SDS011;8903;52.220;20.978;2023-04-15T06:59:12;12.97;;;11.53;;
17570;SDS011;8903;52.220;20.978;2023-04-15T07:01:43;13.63;;;11.30;;
17570;SDS011;8903;52.220;20.978;2023-04-15T07:04:15;13.10;;;11.53;;
17570;SDS011;8903;52.220;20.978;2023-04-15T07:06:46;13.77;;;11.43;;
17570;SDS011;8903;52.220;20.978;2023-04-15T07:09:23;12.43;;;10.90;;
17570;SDS011;8903;52.220;20.978;2023-04-15T07:11:50;11.60;;;10.10;;
17570;SDS011;8903;52.220;20.978;2023-04-15T07:14:17;11.90;;;10.70;;
17570;SDS011;8903;52.220;20.978;2023-04-15T07:16:45;12.13;;;10.83;;
17570;SDS011;8903;52.220;20.978;2023-04-15T07:19:13;14.87;;;10.60;;
17570;SDS011;8903;52.220;20.978;2023-04-15T07:21:40;13.13;;;10.77;;
17570;SDS011;8903;52.220;20.978;2023-04-15T07:24:07;11.17;;;9.97;;
17570;SDS011;8903;52.220;20.978;2023-04-15T07:26:36;11.13;;;9.90;;
17570;SDS011;8903;52.220;20.978;2023-04-15T07:29:03;13.57;;;11.93;;
17570;SDS011;8903;52.220;20.978;2023-04-15T07:31:30;12.90;;;11.10;;
17570;SDS011;8903;52.220;20.978;2023-04-15T07:33:57;18.03;;;10.10;;
17570;SDS011;8903;52.220;20.978;2023-04-15T07:36:25;16.60;;;10.37;;
17570;SDS011;8903;52.220;20.978;2023-04-15T07:38:53;10.27;;;8.87;;
17570;SDS011;8903;52.220;20.978;2023-04-15T07:41:20;11.03;;;9.93;;
17570;SDS011;8903;52.220;20.978;2023-04-15T07:43:48;9.73;;;8.83;;
17570;SDS011;8903;52.220;20.978;2023-04-15T07:46:16;10.03;;;8.97;;
17570;SDS011;8903;52.220;20.978;2023-04-15T07:48:42;12.37;;;9.83;;
17570;SDS011;8903;52.220;20.978;2023-04-15T07:51:10;10.70;;;9.60;;
17570;SDS011;8903;52.220;20.978;2023-04-15T07:53:37;11.13;;;8.80;;
17570;SDS011;8903;52.220;20.978;2023-04-15T07:56:04;10.00;;;8.40;;
17570;SDS011;8903;52.220;20.978;2023-04-15T07:58:32;13.13;;;9.43;;
17570;SDS011;8903;52.220;20.978;2023-04-15T08:01:00;9.80;;;8.90;;
17570;SDS011;8903;52.220;20.978;2023-04-15T08:03:27;9.80;;;8.80;;
17570;SDS011;8903;52.220;20.978;2023-04-15T08:05:54;10.37;;;8.30;;
17570;SDS011;8903;52.220;20.978;2023-04-15T08:08:21;14.73;;;8.17;;
17570;SDS011;8903;52.220;20.978;2023-04-15T08:10:48;8.23;;;7.33;;
17570;SDS011;8903;52.220;20.978;2023-04-15T08:13:15;8.30;;;7.50;;
17570;SDS011;8903;52.220;20.978;2023-04-15T08:15:42;10.50;;;8.40;;
17570;SDS011;8903;52.220;20.978;2023-04-15T08:18:11;7.97;;;7.20;;
17570;SDS011;8903;52.220;20.978;2023-04-15T08:20:38;8.60;;;7.83;;
17570;SDS011;8903;52.220;20.978;2023-04-15T08:23:05;9.53;;;7.30;;
17570;SDS011;8903;52.220;20.978;2023-04-15T08:25:32;7.63;;;6.87;;
17570;SDS011;8903;52.220;20.978;2023-04-15T08:28:02;9.00;;;7.10;;
17570;SDS011;8903;52.220;20.978;2023-04-15T08:30:31;8.20;;;7.20;;
17570;SDS011;8903;52.220;20.978;2023-04-15T08:32:59;7.53;;;6.83;;
17570;SDS011;8903;52.220;20.978;2023-04-15T08:35:27;8.30;;;7.40;;
17570;SDS011;8903;52.220;20.978;2023-04-15T08:37:54;11.13;;;7.07;;
17570;SDS011;8903;52.220;20.978;2023-04-15T08:40:21;7.57;;;6.17;;
17570;SDS011;8903;52.220;20.978;2023-04-15T08:42:59;7.47;;;6.73;;
17570;SDS011;8903;52.220;20.978;2023-04-15T08:45:29;9.03;;;6.57;;
17570;SDS011;8903;52.220;20.978;2023-04-15T08:47:56;7.73;;;6.97;;
17570;SDS011;8903;52.220;20.978;2023-04-15T08:50:24;6.30;;;5.70;;
17570;SDS011;8903;52.220;20.978;2023-04-15T08:52:56;7.00;;;6.30;;
17570;SDS011;8903;52.220;20.978;2023-04-15T08:55:25;7.53;;;6.40;;
17570;SDS011;8903;52.220;20.978;2023-04-15T08:57:58;6.60;;;5.97;;
17570;SDS011;8903;52.220;20.978;2023-04-15T09:00:27;6.37;;;5.67;;
17570;SDS011;8903;52.220;20.978;2023-04-15T09:02:54;8.40;;;6.53;;
17570;SDS011;8903;52.220;20.978;2023-04-15T09:05:21;6.63;;;6.00;;
17570;SDS011;8903;52.220;20.978;2023-04-15T09:07:49;6.40;;;5.80;;
17570;SDS011;8903;52.220;20.978;2023-04-15T09:10:17;6.10;;;5.50;;
17570;SDS011;8903;52.220;20.978;2023-04-15T09:12:47;6.03;;;5.50;;
17570;SDS011;8903;52.220;20.978;2023-04-15T09:15:14;6.03;;;5.43;;
17570;SDS011;8903;52.220;20.978;2023-04-15T09:17:42;6.10;;;5.60;;
17570;SDS011;8903;52.220;20.978;2023-04-15T09:20:15;6.70;;;5.37;;
17570;SDS011;8903;52.220;20.978;2023-04-15T09:22:51;6.70;;;5.20;;
17570;SDS011;8903;52.220;20.978;2023-04-15T09:25:26;7.77;;;5.67;;
17570;SDS011;8903;52.220;20.978;2023-04-15T09:27:54;7.17;;;5.33;;
17570;SDS011;8903;52.220;20.978;2023-04-15T09:30:25;5.27;;;4.57;;
17570;SDS011;8903;52.220;20.978;2023-04-15T09:32:54;5.30;;;4.80;;
17570;SDS011;8903;52.220;20.978;2023-04-15T09:35:25;5.40;;;4.87;;
17570;SDS011;8903;52.220;20.978;2023-04-15T09:37:53;6.20;;;5.60;;
17570;SDS011;8903;52.220;20.978;2023-04-15T09:40:36;4.70;;;4.30;;
17570;SDS011;8903;52.220;20.978;2023-04-15T09:43:05;5.20;;;4.63;;
17570;SDS011;8903;52.220;20.978;2023-04-15T09:45:36;6.23;;;4.73;;
17570;SDS011;8903;52.220;20.978;2023-04-15T09:48:15;5.97;;;4.97;;
17570;SDS011;8903;52.220;20.978;2023-04-15T09:50:46;7.07;;;5.50;;
17570;SDS011;8903;52.220;20.978;2023-04-15T09:53:15;4.80;;;4.40;;
17570;SDS011;8903;52.220;20.978;2023-04-15T09:55:45;5.67;;;5.27;;
17570;SDS011;8903;52.220;20.978;2023-04-15T09:58:19;4.70;;;4.40;;
17570;SDS011;8903;52.220;20.978;2023-04-15T10:00:48;4.60;;;4.30;;
17570;SDS011;8903;52.220;20.978;2023-04-15T10:03:17;5.47;;;4.97;;
17570;SDS011;8903;52.220;20.978;2023-04-15T10:05:46;5.20;;;4.70;;
17570;SDS011;8903;52.220;20.978;2023-04-15T10:08:15;5.83;;;5.23;;
17570;SDS011;8903;52.220;20.978;2023-04-15T10:10:44;5.43;;;4.53;;
17570;SDS011;8903;52.220;20.978;2023-04-15T10:13:16;5.23;;;4.80;;
17570;SDS011;8903;52.220;20.978;2023-04-15T10:15:46;5.50;;;5.00;;
17570;SDS011;8903;52.220;20.978;2023-04-15T10:18:16;5.77;;;5.17;;
17570;SDS011;8903;52.220;20.978;2023-04-15T10:20:46;5.83;;;5.20;;
17570;SDS011;8903;52.220;20.978;2023-04-15T10:23:14;4.30;;;3.97;;
17570;SDS011;8903;52.220;20.978;2023-04-15T10:25:41;5.47;;;4.97;;
17570;SDS011;8903;52.220;20.978;2023-04-15T10:28:10;9.80;;;5.17;;
17570;SDS011;8903;52.220;20.978;2023-04-15T10:30:37;19.63;;;5.40;;
17570;SDS011;8903;52.220;20.978;2023-04-15T10:33:04;11.40;;;4.90;;
17570;SDS011;8903;52.220;20.978;2023-04-15T10:35:32;4.93;;;4.53;;
17570;SDS011;8903;52.220;20.978;2023-04-15T10:38:00;5.00;;;3.53;;
17570;SDS011;8903;52.220;20.978;2023-04-15T10:40:27;5.00;;;4.43;;
17570;SDS011;8903;52.220;20.978;2023-04-15T10:42:57;5.00;;;4.60;;
17570;SDS011;8903;52.220;20.978;2023-04-15T10:45:26;5.07;;;4.57;;
17570;SDS011;8903;52.220;20.978;2023-04-15T10:47:58;10.70;;;3.93;;
17570;SDS011;8903;52.220;20.978;2023-04-15T10:50:29;3.97;;;3.67;;
17570;SDS011;8903;52.220;20.978;2023-04-15T10:52:57;5.77;;;4.27;;
17570;SDS011;8903;52.220;20.978;2023-04-15T10:55:30;4.70;;;4.30;;
17570;SDS011;8903;52.220;20.978;2023-04-15T10:57:58;4.63;;;4.23;;
17570;SDS011;8903;52.220;20.978;2023-04-15T11:00:29;3.73;;;3.43;;
17570;SDS011;8903;52.220;20.978;2023-04-15T11:02:57;4.70;;;4.30;;
17570;SDS011;8903;52.220;20.978;2023-04-15T11:08:16;4.60;;;4.00;;
17570;SDS011;8903;52.220;20.978;2023-04-15T11:13:21;4.30;;;3.90;;
17570;SDS011;8903;52.220;20.978;2023-04-15T11:15:59;4.93;;;4.20;;
17570;SDS011;8903;52.220;20.978;2023-04-15T11:18:31;5.47;;;3.83;;
17570;SDS011;8903;52.220;20.978;2023-04-15T11:21:01;3.30;;;3.10;;
17570;SDS011;8903;52.220;20.978;2023-04-15T11:23:31;4.00;;;3.27;;
17570;SDS011;8903;52.220;20.978;2023-04-15T11:26:01;2.97;;;2.77;;
17570;SDS011;8903;52.220;20.978;2023-04-15T11:28:30;3.60;;;3.30;;
17570;SDS011;8903;52.220;20.978;2023-04-15T11:31:02;3.13;;;2.90;;
17570;SDS011;8903;52.220;20.978;2023-04-15T11:33:32;3.60;;;3.40;;
17570;SDS011;8903;52.220;20.978;2023-04-15T11:35:59;3.30;;;3.00;;
17570;SDS011;8903;52.220;20.978;2023-04-15T11:38:27;3.07;;;2.83;;
17570;SDS011;8903;52.220;20.978;2023-04-15T11:40:55;5.57;;;4.73;;
17570;SDS011;8903;52.220;20.978;2023-04-15T11:43:22;4.63;;;3.80;;
17570;SDS011;8903;52.220;20.978;2023-04-15T11:45:50;3.93;;;3.63;;
17570;SDS011;8903;52.220;20.978;2023-04-15T11:48:21;4.10;;;3.67;;
17570;SDS011;8903;52.220;20.978;2023-04-15T11:50:52;4.67;;;4.20;;
17570;SDS011;8903;52.220;20.978;2023-04-15T11:53:20;4.27;;;3.87;;
17570;SDS011;8903;52.220;20.978;2023-04-15T11:55:48;4.60;;;4.30;;
17570;SDS011;8903;52.220;20.978;2023-04-15T11:58:17;5.67;;;5.17;;
17570;SDS011;8903;52.220;20.978;2023-04-15T12:00:45;5.57;;;5.00;;
17570;SDS011;8903;52.220;20.978;2023-04-15T12:03:14;5.93;;;5.43;;
17570;SDS011;8903;52.220;20.978;2023-04-15T12:06:07;5.27;;;4.87;;
17570;SDS011;8903;52.220;20.978;2023-04-15T12:08:55;6.07;;;5.57;;
17570;SDS011;8903;52.220;20.978;2023-04-15T12:11:28;5.83;;;4.73;;
17570;SDS011;8903;52.220;20.978;2023-04-15T12:13:58;8.20;;;5.33;;
17570;SDS011;8903;52.220;20.978;2023-04-15T12:16:28;4.90;;;4.60;;
17570;SDS011;8903;52.220;20.978;2023-04-15T12:18:56;5.70;;;5.07;;
17570;SDS011;8903;52.220;20.978;2023-04-15T12:21:26;6.43;;;5.57;;
17570;SDS011;8903;52.220;20.978;2023-04-15T12:24:01;6.07;;;5.33;;
17570;SDS011;8903;52.220;20.978;2023-04-15T12:26:30;7.67;;;6.40;;
17570;SDS011;8903;52.220;20.978;2023-04-15T12:29:00;10.00;;;5.27;;
17570;SDS011;8903;52.220;20.978;2023-04-15T12:31:27;7.60;;;6.90;;
17570;SDS011;8903;52.220;20.978;2023-04-15T12:33:54;4.90;;;4.50;;
17570;SDS011;8903;52.220;20.978;2023-04-15T12:36:22;5.43;;;4.93;;
17570;SDS011;8903;52.220;20.978;2023-04-15T12:38:50;6.40;;;5.60;;
17570;SDS011;8903;52.220;20.978;2023-04-15T12:41:18;4.77;;;4.40;;
17570;SDS011;8903;52.220;20.978;2023-04-15T12:43:46;6.20;;;5.70;;
17570;SDS011;8903;52.220;20.978;2023-04-15T12:46:13;5.40;;;4.93;;
17570;SDS011;8903;52.220;20.978;2023-04-15T12:48:40;6.37;;;5.40;;
17570;SDS011;8903;52.220;20.978;2023-04-15T12:51:07;4.10;;;3.70;;
17570;SDS011;8903;52.220;20.978;2023-04-15T12:53:35;5.03;;;4.53;;
17570;SDS011;8903;52.220;20.978;2023-04-15T12:56:04;4.53;;;4.17;;
17570;SDS011;8903;52.220;20.978;2023-04-15T12:58:31;5.77;;;4.83;;
17570;SDS011;8903;52.220;20.978;2023-04-15T13:00:58;4.53;;;4.17;;
17570;SDS011;8903;52.220;20.978;2023-04-15T13:03:25;4.83;;;4.37;;
17570;SDS011;8903;52.220;20.978;2023-04-15T13:05:52;5.00;;;4.20;;
17570;SDS011;8903;52.220;20.978;2023-04-15T13:08:19;5.27;;;4.17;;
17570;SDS011;8903;52.220;20.978;2023-04-15T13:10:46;4.47;;;4.07;;
17570;SDS011;8903;52.220;20.978;2023-04-15T13:13:15;7.27;;;4.20;;
17570;SDS011;8903;52.220;20.978;2023-04-15T13:15:42;5.00;;;4.50;;
17570;SDS011;8903;52.220;20.978;2023-04-15T13:18:10;6.03;;;5.43;;
17570;SDS011;8903;52.220;20.978;2023-04-15T13:20:37;4.50;;;4.10;;
17570;SDS011;8903;52.220;20.978;2023-04-15T13:23:04;4.60;;;4.20;;
17570;SDS011;8903;52.220;20.978;2023-04-15T13:25:31;4.20;;;3.80;;
17570;SDS011;8903;52.220;20.978;2023-04-15T13:27:58;4.80;;;3.73;;
17570;SDS011;8903;52.220;20.978;2023-04-15T13:30:26;4.50;;;3.93;;
17570;SDS011;8903;52.220;20.978;2023-04-15T13:32:54;4.33;;;3.23;;
17570;SDS011;8903;52.220;20.978;2023-04-15T13:35:21;4.23;;;3.60;;
17570;SDS011;8903;52.220;20.978;2023-04-15T13:37:47;6.60;;;3.43;;
17570;SDS011;8903;52.220;20.978;2023-04-15T13:40:14;3.43;;;3.10;;
17570;SDS011;8903;52.220;20.978;2023-04-15T13:42:41;4.10;;;3.53;;
17570;SDS011;8903;52.220;20.978;2023-04-15T13:45:09;5.70;;;3.70;;
17570;SDS011;8903;52.220;20.978;2023-04-15T13:47:39;6.23;;;3.10;;
17570;SDS011;8903;52.220;20.978;2023-04-15T13:50:06;3.37;;;3.07;;
17570;SDS011;8903;52.220;20.978;2023-04-15T13:52:33;4.47;;;3.20;;
17570;SDS011;8903;52.220;20.978;2023-04-15T13:55:01;2.87;;;2.10;;
17570;SDS011;8903;52.220;20.978;2023-04-15T13:57:28;2.77;;;2.50;;
17570;SDS011;8903;52.220;20.978;2023-04-15T13:59:55;3.27;;;2.97;;
17570;SDS011;8903;52.220;20.978;2023-04-15T14:02:22;2.77;;;2.57;;
17570;SDS011;8903;52.220;20.978;2023-04-15T14:04:51;2.90;;;2.70;;
17570;SDS011;8903;52.220;20.978;2023-04-15T14:07:18;3.17;;;2.87;;
17570;SDS011;8903;52.220;20.978;2023-04-15T14:09:44;6.40;;;2.50;;
17570;SDS011;8903;52.220;20.978;2023-04-15T14:12:12;2.70;;;2.50;;
17570;SDS011;8903;52.220;20.978;2023-04-15T14:14:39;5.70;;;5.10;;
17570;SDS011;8903;52.220;20.978;2023-04-15T14:17:06;2.97;;;2.77;;
17570;SDS011;8903;52.220;20.978;2023-04-15T14:19:33;3.13;;;2.67;;
17570;SDS011;8903;52.220;20.978;2023-04-15T14:22:01;2.87;;;2.30;;
17570;SDS011;8903;52.220;20.978;2023-04-15T14:24:28;3.00;;;2.10;;
17570;SDS011;8903;52.220;20.978;2023-04-15T14:26:56;3.30;;;2.60;;
17570;SDS011;8903;52.220;20.978;2023-04-15T14:29:24;2.60;;;2.10;;
17570;SDS011;8903;52.220;20.978;2023-04-15T14:31:50;3.03;;;2.67;;
17570;SDS011;8903;52.220;20.978;2023-04-15T14:34:21;2.90;;;2.63;;
17570;SDS011;8903;52.220;20.978;2023-04-15T14:36:50;2.23;;;2.03;;
17570;SDS011;8903;52.220;20.978;2023-04-15T14:39:18;2.37;;;2.17;;
17570;SDS011;8903;52.220;20.978;2023-04-15T14:41:54;2.07;;;1.90;;
17570;SDS011;8903;52.220;20.978;2023-04-15T14:44:44;3.80;;;2.73;;
17570;SDS011;8903;52.220;20.978;2023-04-15T14:47:10;2.63;;;1.63;;
17570;SDS011;8903;52.220;20.978;2023-04-15T14:49:38;1.90;;;1.80;;